Time;durP1;ratioP1;P1;durP2;ratioP2;P2;SDS_P1;SDS_P2;PMS_P1;PMS_P2;Temp;Humidity;BMP_temperature;BMP_pressure;BME280_temperature;BME280_humidity;BME280_pressure;Samples;Min_cycle;Max_cycle;Signal;HPM_P1;HPM_P2
2021/03/04 00:01:47;;;;;;;85.07;40.38;;;6.10;99.90;;;;;;4938773;29;20024;-88
2021/03/04 00:04:13;;;;;;;98.35;46.13;;;6.10;99.90;;;;;;4942045;29;20024;-89
2021/03/04 00:06:39;;;;;;;101.10;46.40;;;6.10;99.90;;;;;;4931451;29;20488;-88
2021/03/04 00:09:05;;;;;;;103.82;46.35;;;6.00;99.90;;;;;;4930060;29;20031;-89
2021/03/04 00:11:31;;;;;;;93.57;43.38;;;6.00;99.90;;;;;;4936901;29;20467;-88
2021/03/04 00:14:00;;;;;;;94.20;42.97;;;6.00;99.90;;;;;;4936760;29;20131;-88
2021/03/04 00:16:32;;;;;;;82.65;39.22;;;5.90;99.90;;;;;;4931095;29;20103;-88
2021/03/04 00:21:50;;;;;;;78.60;36.42;;;6.00;99.90;;;;;;4925052;28;20087;-89
2021/03/04 00:24:26;;;;;;;75.88;37.45;;;6.00;99.90;;;;;;4940461;29;20500;-88
2021/03/04 00:27:02;;;;;;;77.80;37.67;;;6.10;99.90;;;;;;4944417;29;20043;-90
2021/03/04 00:29:28;;;;;;;81.03;39.53;;;6.00;99.90;;;;;;4908353;29;20051;-88
2021/03/04 00:31:57;;;;;;;84.80;38.92;;;6.00;99.90;;;;;;4954618;29;20035;-88
2021/03/04 00:34:28;;;;;;;80.05;38.25;;;6.00;99.90;;;;;;4944334;29;20059;-88
2021/03/04 00:36:54;;;;;;;79.93;39.05;;;6.00;99.90;;;;;;4950840;29;20031;-88
2021/03/04 00:39:22;;;;;;;75.25;37.92;;;6.00;99.90;;;;;;4950931;29;20034;-87
2021/03/04 00:41:48;;;;;;;80.57;38.22;;;6.00;99.90;;;;;;4952940;29;20028;-89
2021/03/04 00:44:14;;;;;;;81.05;38.60;;;5.90;99.90;;;;;;4952154;29;20056;-88
2021/03/04 00:46:39;;;;;;;90.32;41.97;;;6.00;99.90;;;;;;4946786;29;20035;-88
2021/03/04 00:49:05;;;;;;;80.50;41.03;;;6.00;99.90;;;;;;4944670;29;20054;-88
2021/03/04 00:51:33;;;;;;;78.47;38.60;;;5.90;99.90;;;;;;4944448;29;20392;-88
2021/03/04 00:53:59;;;;;;;78.63;37.22;;;5.80;99.90;;;;;;4948747;29;20377;-87
2021/03/04 00:56:36;;;;;;;74.55;35.60;;;5.80;99.90;;;;;;4938839;29;20059;-88
2021/03/04 00:59:05;;;;;;;75.75;36.47;;;5.80;99.90;;;;;;4951986;29;20155;-88
2021/03/04 01:01:33;;;;;;;81.65;38.00;;;5.80;99.90;;;;;;4954975;29;20094;-88
2021/03/04 01:03:59;;;;;;;82.20;39.90;;;5.80;99.90;;;;;;4955239;29;20028;-87
2021/03/04 01:06:26;;;;;;;81.60;37.60;;;5.80;99.90;;;;;;4955208;29;20353;-88
2021/03/04 01:08:52;;;;;;;78.10;35.53;;;5.70;99.90;;;;;;4939402;29;20472;-89
2021/03/04 01:11:21;;;;;;;74.47;35.63;;;5.80;99.90;;;;;;4940365;29;20028;-89
2021/03/04 01:13:48;;;;;;;74.47;34.55;;;5.80;99.90;;;;;;4935888;29;20034;-89
2021/03/04 01:16:16;;;;;;;75.88;35.90;;;5.80;99.90;;;;;;4935817;29;20055;-89
2021/03/04 01:18:45;;;;;;;76.45;35.10;;;5.80;99.90;;;;;;4935380;29;20079;-88
2021/03/04 01:21:21;;;;;;;;;;;;;;;;;;;;;
2021/03/04 01:23:48;;;;;;;69.57;33.13;;;5.80;99.90;;;;;;4936483;29;20031;-88
2021/03/04 01:26:18;;;;;;;72.63;34.17;;;5.80;99.90;;;;;;4935530;29;20028;-89
2021/03/04 01:28:47;;;;;;;69.50;33.00;;;5.80;99.90;;;;;;4920039;29;20083;-90
2021/03/04 01:31:13;;;;;;;68.60;33.40;;;5.80;99.90;;;;;;4935258;29;20028;-89
2021/03/04 01:33:44;;;;;;;75.28;34.72;;;5.80;99.90;;;;;;4935986;29;20032;-90
2021/03/04 01:36:13;;;;;;;76.82;36.75;;;5.80;99.90;;;;;;4940164;29;20070;-88
2021/03/04 01:38:42;;;;;;;76.13;35.35;;;5.80;99.90;;;;;;4938656;29;20083;-89
2021/03/04 01:41:08;;;;;;;68.40;32.85;;;5.80;99.90;;;;;;4938692;29;20122;-89
2021/03/04 01:43:34;;;;;;;70.70;33.83;;;5.80;99.90;;;;;;4938986;29;20032;-88
2021/03/04 01:46:00;;;;;;;71.22;33.42;;;5.80;99.90;;;;;;4938484;29;20039;-89
2021/03/04 01:48:29;;;;;;;58.92;29.55;;;5.80;99.90;;;;;;4938745;29;20027;-89
2021/03/04 01:50:55;;;;;;;69.03;31.48;;;5.80;99.90;;;;;;4938798;29;20040;-89
2021/03/04 01:53:22;;;;;;;71.75;33.13;;;5.80;99.90;;;;;;4938864;29;20024;-89
2021/03/04 01:55:49;;;;;;;70.28;32.10;;;5.80;99.90;;;;;;4938432;29;20083;-88
2021/03/04 01:58:18;;;;;;;68.45;32.67;;;5.70;99.90;;;;;;4938395;29;20365;-89
2021/03/04 02:00:46;;;;;;;66.22;32.58;;;5.60;99.90;;;;;;4938458;29;20047;-89
2021/03/04 02:03:14;;;;;;;55.80;28.30;;;5.60;99.90;;;;;;4938525;29;20545;-90
2021/03/04 02:05:40;;;;;;;59.10;29.27;;;5.60;99.90;;;;;;4938292;29;20020;-90
2021/03/04 02:08:07;;;;;;;65.97;30.35;;;5.50;99.90;;;;;;4938358;29;20060;-89
2021/03/04 02:11:06;;;;;;;59.65;29.67;;;5.50;99.90;;;;;;4937873;29;20028;-88
2021/03/04 02:13:50;;;;;;;55.03;28.25;;;5.50;99.90;;;;;;4939344;29;20081;-88
2021/03/04 02:16:45;;;;;;;60.20;28.85;;;5.50;99.90;;;;;;4937913;29;20034;-89
2021/03/04 02:19:50;;;;;;;50.97;26.55;;;5.40;99.90;;;;;;4950505;29;20047;-89
2021/03/04 02:22:29;;;;;;;54.50;27.27;;;5.40;99.90;;;;;;4940391;29;20045;-88
2021/03/04 02:25:18;;;;;;;46.47;24.30;;;5.40;99.90;;;;;;4940896;29;20153;-89
2021/03/04 02:27:46;;;;;;;50.80;27.58;;;5.50;99.90;;;;;;4940879;29;20031;-90
2021/03/04 02:30:15;;;;;;;47.47;25.02;;;5.40;99.90;;;;;;4941040;29;20023;-89
2021/03/04 02:32:52;;;;;;;51.42;25.20;;;5.40;99.90;;;;;;4958123;29;20054;-88
2021/03/04 02:35:30;;;;;;;60.58;29.40;;;5.40;99.90;;;;;;4958169;29;20172;-88
2021/03/04 02:37:59;;;;;;;50.70;26.05;;;5.30;99.90;;;;;;4941011;29;20098;-89
2021/03/04 02:40:29;;;;;;;56.58;29.17;;;5.30;99.90;;;;;;4941070;29;20031;-89
2021/03/04 02:42:57;;;;;;;51.83;26.52;;;5.30;99.90;;;;;;4940612;29;20434;-88
2021/03/04 02:45:27;;;;;;;51.78;26.63;;;5.30;99.90;;;;;;4957155;28;20484;-89
2021/03/04 02:47:54;;;;;;;57.55;25.73;;;5.30;99.90;;;;;;4938799;29;20241;-88
2021/03/04 02:50:23;;;;;;;54.63;25.92;;;5.30;99.90;;;;;;4940261;29;20035;-90
2021/03/04 02:52:52;;;;;;;52.13;27.50;;;5.30;99.90;;;;;;4957153;29;20488;-88
2021/03/04 02:55:19;;;;;;;50.17;25.58;;;5.30;99.90;;;;;;4940599;29;20027;-89
2021/03/04 02:57:49;;;;;;;48.30;25.00;;;5.40;99.90;;;;;;4957418;29;20066;-89
2021/03/04 03:00:23;;;;;;;53.65;26.30;;;5.30;99.90;;;;;;4940316;29;20027;-89
2021/03/04 03:02:50;;;;;;;57.67;27.75;;;5.30;99.90;;;;;;4940413;29;20492;-88
2021/03/04 03:05:19;;;;;;;51.85;26.02;;;5.30;99.90;;;;;;4940133;29;20086;-88
2021/03/04 03:07:48;;;;;;;56.00;27.25;;;5.20;99.90;;;;;;4940045;29;20023;-89
2021/03/04 03:10:18;;;;;;;54.40;28.05;;;5.20;99.90;;;;;;4940434;29;20380;-89
2021/03/04 03:12:46;;;;;;;53.75;26.52;;;5.20;99.90;;;;;;4940005;29;20491;-90
2021/03/04 03:15:15;;;;;;;49.25;24.83;;;5.20;99.90;;;;;;4939755;29;20023;-89
2021/03/04 03:17:41;;;;;;;49.35;25.17;;;5.20;99.90;;;;;;4939988;29;20031;-89
2021/03/04 03:20:30;;;;;;;48.53;25.13;;;5.20;99.90;;;;;;4924266;29;20063;-88
2021/03/04 03:22:56;;;;;;;50.38;25.60;;;5.20;99.90;;;;;;4940271;29;20126;-88
2021/03/04 03:25:24;;;;;;;48.03;23.63;;;5.20;99.90;;;;;;4939995;29;20118;-88
2021/03/04 03:27:53;;;;;;;51.53;26.25;;;5.20;99.90;;;;;;4939794;29;20047;-88
2021/03/04 03:30:28;;;;;;;48.70;23.83;;;5.20;99.90;;;;;;4956992;29;20028;-89
2021/03/04 03:33:17;;;;;;;50.67;24.80;;;5.20;99.90;;;;;;4924148;29;20031;-88
2021/03/04 03:35:44;;;;;;;57.60;27.67;;;5.20;99.90;;;;;;4939230;29;20047;-88
2021/03/04 03:38:15;;;;;;;54.95;26.42;;;5.20;99.90;;;;;;4939591;29;20031;-88
2021/03/04 03:40:52;;;;;;;52.53;26.02;;;5.10;99.90;;;;;;4939585;29;20471;-88
2021/03/04 03:43:19;;;;;;;52.42;24.67;;;5.10;99.90;;;;;;4939875;29;20471;-89
2021/03/04 03:45:48;;;;;;;49.70;24.50;;;5.10;99.90;;;;;;4939421;29;20027;-89
2021/03/04 03:48:15;;;;;;;49.78;25.38;;;5.10;99.90;;;;;;4956727;29;20032;-89
2021/03/04 03:50:45;;;;;;;56.05;27.85;;;5.00;99.90;;;;;;4939509;29;20031;-89
2021/03/04 03:53:16;;;;;;;53.70;26.23;;;5.00;99.90;;;;;;4939468;29;20491;-89
2021/03/04 03:56:04;;;;;;;49.42;25.38;;;4.90;99.90;;;;;;4939392;29;20063;-90
2021/03/04 03:58:36;;;;;;;56.08;27.05;;;4.90;99.90;;;;;;4938760;29;20077;-89
2021/03/04 04:01:02;;;;;;;61.80;29.55;;;4.90;99.90;;;;;;4924071;29;20542;-89
2021/03/04 04:03:30;;;;;;;51.97;25.95;;;4.90;99.90;;;;;;4956781;29;20023;-90
2021/03/04 04:05:58;;;;;;;50.13;24.77;;;4.90;99.90;;;;;;4939739;29;20028;-91
2021/03/04 04:08:27;;;;;;;50.08;24.33;;;4.90;99.90;;;;;;4939745;29;20031;-89
2021/03/04 04:10:59;;;;;;;52.03;24.52;;;5.00;99.90;;;;;;4939453;29;20496;-89
2021/03/04 04:13:26;;;;;;;48.10;23.90;;;5.00;99.90;;;;;;4939320;29;20082;-90
2021/03/04 04:16:12;;;;;;;47.30;23.52;;;5.00;99.90;;;;;;4939228;29;20027;-90
2021/03/04 04:18:45;;;;;;;49.80;23.73;;;5.00;99.90;;;;;;4956205;29;20059;-89
2021/03/04 04:21:19;;;;;;;48.10;24.30;;;5.10;99.90;;;;;;4938957;29;20063;-90
2021/03/04 04:23:46;;;;;;;58.75;27.52;;;5.00;99.90;;;;;;4939109;29;20082;-88
2021/03/04 04:26:12;;;;;;;57.78;26.23;;;5.00;99.90;;;;;;4939220;29;20114;-87
2021/03/04 04:28:43;;;;;;;51.53;25.08;;;5.00;99.90;;;;;;4938880;29;20110;-88
2021/03/04 04:31:11;;;;;;;50.83;25.45;;;5.00;99.90;;;;;;4956450;29;20035;-88
2021/03/04 04:33:47;;;;;;;;;;;;;;;;;;;;;
2021/03/04 04:36:13;;;;;;;45.78;24.08;;;5.00;99.90;;;;;;4956151;29;20504;-88
2021/03/04 04:38:39;;;;;;;46.70;22.83;;;5.00;99.90;;;;;;4938936;29;20127;-89
2021/03/04 04:41:09;;;;;;;50.42;24.60;;;5.00;99.90;;;;;;4923190;29;20034;-89
2021/03/04 04:43:41;;;;;;;43.58;20.70;;;5.10;99.90;;;;;;4939156;29;20024;-89
2021/03/04 04:46:07;;;;;;;49.85;22.88;;;5.10;99.90;;;;;;4938877;29;20066;-89
2021/03/04 04:48:43;;;;;;;48.28;23.42;;;5.10;99.90;;;;;;4938991;29;20059;-90
2021/03/04 04:51:12;;;;;;;45.70;22.48;;;5.10;99.90;;;;;;4924591;29;20058;-88
2021/03/04 04:53:41;;;;;;;46.13;22.52;;;5.10;99.90;;;;;;4938858;29;20038;-89
2021/03/04 04:56:10;;;;;;;51.42;26.50;;;5.10;99.90;;;;;;4938730;29;20047;-89
2021/03/04 04:58:36;;;;;;;55.28;24.60;;;5.00;99.90;;;;;;4938676;29;20086;-89
2021/03/04 05:01:05;;;;;;;56.50;26.08;;;5.00;99.90;;;;;;4938452;29;20031;-89
2021/03/04 05:03:33;;;;;;;48.65;23.42;;;5.00;99.90;;;;;;4939896;29;20392;-89
2021/03/04 05:06:03;;;;;;;55.92;25.80;;;5.00;99.90;;;;;;4955662;29;20580;-89
2021/03/04 05:08:31;;;;;;;60.08;27.27;;;5.00;99.90;;;;;;4938461;29;20062;-90
2021/03/04 05:11:02;;;;;;;57.47;26.10;;;5.00;99.90;;;;;;4942171;29;20062;-90
2021/03/04 05:13:28;;;;;;;52.80;25.00;;;5.00;99.90;;;;;;4925897;29;20032;-89
2021/03/04 05:15:57;;;;;;;65.38;30.55;;;5.00;99.90;;;;;;4942119;29;20439;-89
2021/03/04 05:18:22;;;;;;;59.03;27.08;;;5.00;99.90;;;;;;4926479;29;20055;-89
2021/03/04 05:20:48;;;;;;;57.80;27.85;;;4.90;99.90;;;;;;4942103;29;20482;-90
2021/03/04 05:23:16;;;;;;;54.65;26.90;;;4.90;99.90;;;;;;4941983;29;20420;-88
2021/03/04 05:25:45;;;;;;;57.45;26.58;;;4.90;99.90;;;;;;4941961;29;20118;-88
2021/03/04 05:28:18;;;;;;;55.78;26.50;;;4.90;99.90;;;;;;4926164;29;20122;-88
2021/03/04 05:30:44;;;;;;;55.67;26.83;;;4.90;99.90;;;;;;4942992;29;20067;-88
2021/03/04 05:33:17;;;;;;;52.00;25.35;;;4.90;99.90;;;;;;4942031;29;20055;-89
2021/03/04 05:35:43;;;;;;;55.03;24.60;;;4.90;99.90;;;;;;4941781;29;20114;-90
2021/03/04 05:38:09;;;;;;;49.63;24.70;;;4.90;99.90;;;;;;4941800;29;20114;-89
2021/03/04 05:40:36;;;;;;;57.83;28.55;;;4.80;99.90;;;;;;4959084;29;20055;-90
2021/03/04 05:43:32;;;;;;;61.80;28.50;;;4.80;99.90;;;;;;4925393;29;20039;-88
2021/03/04 05:46:07;;;;;;;54.33;25.90;;;4.80;99.90;;;;;;4957743;29;20063;-88
2021/03/04 05:48:34;;;;;;;54.97;25.25;;;4.70;99.90;;;;;;4941753;29;20024;-88
2021/03/04 05:51:02;;;;;;;53.33;25.90;;;4.80;99.90;;;;;;4958452;29;20110;-89
2021/03/04 05:53:34;;;;;;;50.85;23.98;;;4.80;99.90;;;;;;4941322;29;20032;-88
2021/03/04 05:56:15;;;;;;;;;;;;;;;;;;;;;
2021/03/04 05:59:14;;;;;;;51.35;24.88;;;4.80;99.90;;;;;;4943131;29;20028;-88
2021/03/04 06:01:56;;;;;;;49.50;24.65;;;4.80;99.90;;;;;;4926433;29;20039;-88
2021/03/04 06:04:29;;;;;;;56.70;25.42;;;4.80;99.90;;;;;;4939014;29;20027;-88
2021/03/04 06:07:04;;;;;;;;;;;4.80;99.90;;;;;;4923362;29;20047;-90
2021/03/04 06:09:40;;;;;;;59.67;26.35;;;4.70;99.90;;;;;;4939131;29;19914;-89
2021/03/04 06:12:19;;;;;;;54.17;26.20;;;4.80;99.90;;;;;;4956505;29;20238;-89
2021/03/04 06:15:05;;;;;;;53.85;24.70;;;4.80;99.90;;;;;;4939080;29;20476;-89
2021/03/04 06:17:36;;;;;;;55.70;27.02;;;4.80;99.90;;;;;;4936396;29;20361;-89
2021/03/04 06:20:16;;;;;;;52.28;24.70;;;4.80;99.90;;;;;;4938795;29;20047;-91
2021/03/04 06:22:49;;;;;;;53.78;23.73;;;4.80;99.90;;;;;;4938425;29;20043;-90
2021/03/04 06:25:38;;;;;;;52.60;25.45;;;4.80;99.90;;;;;;4923297;29;20031;-89
2021/03/04 06:28:23;;;;;;;;;;;;;;;;;;;;;
2021/03/04 06:31:16;;;;;;;56.05;26.50;;;4.80;99.90;;;;;;4951686;29;20037;-89
2021/03/04 06:43:55;;;;;;;;;;;;;;;;;;;;;
2021/03/04 06:47:07;;;;;;;52.25;24.27;;;4.70;99.90;;;;;;4954305;29;20034;-89
2021/03/04 06:50:16;;;;;;;;;;;;;;;;;;;;;
2021/03/04 06:53:32;;;;;;;;;;;;;;;;;;;;;
2021/03/04 06:56:17;;;;;;;;;;;;;;;;;;;;;
2021/03/04 06:59:22;;;;;;;58.20;26.67;;;4.70;99.90;;;;;;4879806;29;20047;-89
2021/03/04 07:02:33;;;;;;;;;;;;;;;;;;;;;
2021/03/04 07:05:28;;;;;;;;;;;;;;;;;;;;;
2021/03/04 07:08:28;;;;;;;59.78;26.38;;;4.70;99.90;;;;;;4892590;29;20025;-90
2021/03/04 07:11:20;;;;;;;57.40;25.17;;;4.70;99.90;;;;;;4919951;29;20049;-90
2021/03/04 07:14:00;;;;;;;;;;;;;;;;;;;;;
2021/03/04 07:20:09;;;;;;;;;;;;;;;;;;;;;
2021/03/04 07:23:40;;;;;;;50.38;24.55;;;4.70;99.90;;;;;;4949871;29;20023;-88
2021/03/04 07:28:58;;;;;;;51.17;22.80;;;4.80;99.90;;;;;;4897271;29;20047;-88
2021/03/04 07:31:53;;;;;;;;;;;;;;;;;;;;;
2021/03/04 07:34:40;;;;;;;;;;;;;;;;;;;;;
2021/03/04 07:43:27;;;;;;;49.75;23.05;;;4.70;99.90;;;;;;4947054;28;20041;-90
2021/03/04 07:46:52;;;;;;;52.40;21.67;;;4.80;99.90;;;;;;4930700;28;20471;-90
2021/03/04 07:49:38;;;;;;;48.83;21.52;;;4.70;99.90;;;;;;4958983;28;20047;-91
2021/03/04 07:56:13;;;;;;;50.92;22.13;;;4.80;99.90;;;;;;4848192;29;20252;-91
2021/03/04 08:16:36;;;;;;;;;;;;;;;;;;;;;
2021/03/04 08:20:21;;;;;;;58.97;24.05;;;4.90;99.90;;;;;;4779796;29;20066;-90
2021/03/04 08:23:46;;;;;;;60.55;25.08;;;4.90;99.90;;;;;;4744693;30;20052;-91
2021/03/04 08:26:51;;;;;;;58.50;23.42;;;4.90;99.90;;;;;;4751220;30;20138;-90
2021/03/04 08:33:25;;;;;;;59.35;23.88;;;4.90;99.90;;;;;;4727118;30;20049;-90
2021/03/04 08:37:28;;;;;;;;;;;;;;;;;;;;;
2021/03/04 08:39:40;;;;;;;65.18;25.30;;;4.80;99.90;;;;;;4794012;29;20050;-90
2021/03/04 08:42:24;;;;;;;;;;;;;;;;;;;;;
2021/03/04 08:47:51;;;;;;;61.03;23.75;;;4.90;99.90;;;;;;4829895;29;20427;-90
2021/03/04 08:50:42;;;;;;;68.32;25.17;;;4.90;99.90;;;;;;4878338;28;20046;-90
2021/03/04 08:53:33;;;;;;;66.88;25.02;;;4.90;99.90;;;;;;4962489;28;20031;-89
2021/03/04 08:56:31;;;;;;;;;;;;;;;;;;;;;
2021/03/04 08:59:43;;;;;;;;;;;;;;;;;;;;;
2021/03/04 09:02:30;;;;;;;59.63;24.10;;;4.90;99.90;;;;;;4966368;28;20030;-91
2021/03/04 09:08:48;;;;;;;60.30;24.38;;;4.90;99.90;;;;;;4965094;28;20035;-89
2021/03/04 09:15:08;;;;;;;63.30;25.00;;;4.80;99.90;;;;;;4965585;28;20039;-89
2021/03/04 09:17:51;;;;;;;46.60;20.55;;;4.80;99.90;;;;;;4977418;28;20073;-90
2021/03/04 09:24:28;;;;;;;47.90;19.25;;;4.80;99.90;;;;;;4899268;29;20099;-90
2021/03/04 09:27:17;;;;;;;52.17;19.77;;;4.90;99.90;;;;;;4852405;29;20501;-89
2021/03/04 09:37:37;;;;;;;;;;;;;;;;;;;;;
2021/03/04 09:44:44;;;;;;;;;;;;;;;;;;;;;
2021/03/04 09:51:45;;;;;;;;;;;;;;;;;;;;;
2021/03/04 09:58:12;;;;;;;44.80;17.63;;;5.00;99.90;;;;;;4718541;30;20050;-90
2021/03/04 10:04:28;;;;;;;;;;;;;;;;;;;;;
2021/03/04 10:07:49;;;;;;;;;;;;;;;;;;;;;
2021/03/04 10:14:37;;;;;;;39.80;17.20;;;5.20;99.90;;;;;;4737950;30;20044;-90
2021/03/04 10:17:47;;;;;;;39.38;18.08;;;5.20;99.90;;;;;;4782433;30;20720;-90
2021/03/04 10:24:37;;;;;;;;;;;;;;;;;;;;;
2021/03/04 10:27:55;;;;;;;;;;;;;;;;;;;;;
2021/03/04 10:33:54;;;;;;;37.33;16.48;;;5.20;99.90;;;;;;4837024;29;20392;-90
2021/03/04 10:36:49;;;;;;;;;;;;;;;;;;;;;
2021/03/04 10:40:06;;;;;;;32.50;14.60;;;5.30;99.90;;;;;;4949450;29;20024;-90
2021/03/04 10:46:27;;;;;;;31.95;14.30;;;5.40;99.90;;;;;;4895199;29;20032;-89
2021/03/04 10:49:53;;;;;;;;;;;;;;;;;;;;;
2021/03/04 10:53:15;;;;;;;26.92;13.25;;;5.30;99.90;;;;;;4959212;28;20064;-90
2021/03/04 10:59:11;;;;;;;25.48;11.75;;;5.40;99.90;;;;;;4893209;29;20025;-89
2021/03/04 11:01:57;;;;;;;;;;;;;;;;;;;;;
2021/03/04 11:08:16;;;;;;;24.70;11.00;;;5.40;99.90;;;;;;4922185;29;20523;-90
2021/03/04 11:11:44;;;;;;;;;;;;;;;;;;;;;
2021/03/04 11:18:35;;;;;;;;;;;;;;;;;;;;;
2021/03/04 11:21:46;;;;;;;22.63;10.70;;;5.50;99.90;;;;;;4743101;30;20051;-91
2021/03/04 11:32:25;;;;;;;;;;;;;;;;;;;;;
2021/03/04 12:03:24;;;;;;;15.32;7.70;;;5.40;99.90;;;;;;5142977;27;20778;-88
2021/03/04 12:05:50;;;;;;;14.77;7.70;;;5.50;99.90;;;;;;5080365;28;20028;-89
2021/03/04 12:08:16;;;;;;;12.93;6.55;;;5.40;99.90;;;;;;5090821;28;20026;-89
2021/03/04 12:10:42;;;;;;;12.95;6.68;;;5.40;99.90;;;;;;5092777;28;20374;-91
2021/03/04 12:13:09;;;;;;;12.43;7.00;;;5.40;99.90;;;;;;5091293;28;20063;-91
2021/03/04 12:15:35;;;;;;;12.05;6.70;;;5.40;99.90;;;;;;5089650;28;20021;-92
2021/03/04 12:18:02;;;;;;;11.27;6.13;;;5.40;99.90;;;;;;5078202;28;20039;-92
2021/03/04 12:20:28;;;;;;;11.63;6.20;;;5.40;99.90;;;;;;5099934;28;20065;-92
2021/03/04 12:22:54;;;;;;;10.15;5.57;;;5.60;99.90;;;;;;5100474;28;20055;-89
2021/03/04 12:25:20;;;;;;;8.52;5.38;;;5.70;99.90;;;;;;5068115;28;20032;-91
2021/03/04 12:27:54;;;;;;;10.63;5.30;;;5.80;99.90;;;;;;5093882;28;20039;-92
2021/03/04 12:41:29;;;;;;;9.88;4.75;;;6.20;99.90;;;;;;4979425;28;20062;-90
2021/03/04 12:43:55;;;;;;;7.70;4.18;;;6.20;99.90;;;;;;5051414;28;20053;-92
2021/03/04 12:46:22;;;;;;;8.25;4.70;;;6.20;99.90;;;;;;5077027;28;20027;-91
2021/03/04 12:48:47;;;;;;;6.57;4.00;;;6.30;99.90;;;;;;5072610;28;20032;-92
2021/03/04 12:52:00;;;;;;;9.30;3.80;;;6.30;99.90;;;;;;5106756;28;20034;-91
2021/03/04 12:55:24;;;;;;;5.93;3.20;;;6.30;99.90;;;;;;5068225;28;20230;-93
2021/03/04 13:14:46;;;;;;;;;;;;;;;;;;;;;
2021/03/04 13:17:35;;;;;;;5.50;3.40;;;6.30;99.90;;;;;;5031900;28;20044;-93
2021/03/04 13:21:06;;;;;;;5.32;3.10;;;6.30;99.90;;;;;;5007037;28;20375;-94
2021/03/04 13:23:10;;;;;;;5.13;2.95;;;6.30;99.90;;;;;;5005831;28;20038;-93
2021/03/04 13:25:36;;;;;;;4.68;2.40;;;6.40;99.90;;;;;;4999843;28;20034;-93
2021/03/04 13:31:16;;;;;;;6.18;3.05;;;6.50;99.90;;;;;;5014974;28;20041;-93
2021/03/04 13:33:48;;;;;;;6.10;2.78;;;6.50;99.90;;;;;;4999500;28;20036;-92
2021/03/04 13:36:17;;;;;;;6.95;3.10;;;6.60;99.90;;;;;;4996627;28;20042;-92
2021/03/04 13:38:43;;;;;;;5.53;2.78;;;6.60;99.90;;;;;;4997528;28;20021;-91
2021/03/04 13:41:08;;;;;;;4.55;2.58;;;6.60;99.90;;;;;;4998984;28;20125;-91
2021/03/04 13:44:33;;;;;;;6.22;2.65;;;6.60;99.90;;;;;;4998535;28;20112;-92
2021/03/04 13:47:22;;;;;;;5.32;2.85;;;6.60;99.90;;;;;;5027271;28;20029;-92
2021/03/04 13:49:47;;;;;;;6.55;3.30;;;6.60;99.90;;;;;;5013626;28;20030;-89
2021/03/04 13:52:16;;;;;;;5.30;3.00;;;6.50;99.90;;;;;;5000862;28;20093;-91
2021/03/04 13:54:42;;;;;;;6.65;3.40;;;6.50;99.90;;;;;;5025615;28;20670;-92
2021/03/04 13:57:13;;;;;;;6.95;3.78;;;6.50;99.90;;;;;;5027613;28;20033;-89
2021/03/04 13:59:58;;;;;;;7.10;3.63;;;6.40;99.90;;;;;;5013066;28;20030;-93
2021/03/04 14:02:29;;;;;;;5.82;3.53;;;6.40;99.90;;;;;;4991221;28;20056;-91
2021/03/04 14:04:55;;;;;;;5.75;3.65;;;6.30;99.90;;;;;;5021281;28;20053;-92
2021/03/04 14:07:21;;;;;;;5.70;3.58;;;6.30;99.90;;;;;;5002686;28;20026;-91
2021/03/04 14:09:46;;;;;;;6.80;3.45;;;6.30;99.90;;;;;;5005255;28;20017;-90
2021/03/04 14:12:12;;;;;;;7.65;4.40;;;6.30;99.90;;;;;;5000634;28;20753;-90
2021/03/04 14:14:37;;;;;;;9.35;4.53;;;6.30;99.90;;;;;;5006839;28;20095;-89
2021/03/04 14:17:04;;;;;;;8.20;4.25;;;6.40;99.90;;;;;;5010624;28;20546;-91
2021/03/04 14:19:29;;;;;;;8.00;4.55;;;6.40;99.90;;;;;;5003448;28;20037;-92
2021/03/04 14:21:55;;;;;;;6.88;4.13;;;6.40;99.90;;;;;;5031891;28;20045;-92
2021/03/04 14:24:20;;;;;;;7.70;4.18;;;6.40;99.90;;;;;;5005502;28;20017;-91
2021/03/04 14:26:47;;;;;;;10.18;5.47;;;6.40;99.90;;;;;;5013048;28;20022;-89
2021/03/04 14:29:13;;;;;;;7.20;4.28;;;6.50;99.90;;;;;;5006347;28;20014;-91
2021/03/04 14:31:38;;;;;;;5.95;3.78;;;6.50;99.90;;;;;;5002375;28;20564;-90
2021/03/04 14:34:04;;;;;;;8.50;4.00;;;6.50;99.90;;;;;;4997366;28;20033;-91
2021/03/04 14:36:30;;;;;;;6.68;3.38;;;6.60;99.90;;;;;;5001833;28;20022;-92
2021/03/04 14:38:58;;;;;;;5.45;3.33;;;6.70;99.90;;;;;;5006185;28;20017;-91
2021/03/04 14:41:25;;;;;;;6.20;3.50;;;6.70;99.90;;;;;;5001683;28;20709;-89
2021/03/04 14:43:51;;;;;;;7.47;3.13;;;6.70;99.90;;;;;;5007278;28;20743;-90
2021/03/04 14:46:18;;;;;;;5.35;3.13;;;6.70;99.90;;;;;;5006225;28;20017;-93
2021/03/04 14:48:44;;;;;;;6.00;3.38;;;6.70;99.90;;;;;;5011758;28;20022;-90
2021/03/04 14:56:40;;;;;;;;;;;;;;;;;;;;;
2021/03/04 15:03:28;;;;;;;4.88;2.40;;;6.70;99.90;;;;;;4958781;28;20035;-92
2021/03/04 15:17:36;;;;;;;7.47;2.30;;;6.60;99.90;;;;;;4841573;29;20049;-93
2021/03/04 15:20:51;;;;;;;5.32;1.90;;;6.60;99.90;;;;;;4866900;29;20033;-92
2021/03/04 15:34:51;;;;;;;;;;;;;;;;;;;;;
2021/03/04 15:48:31;;;;;;;;;;;;;;;;;;;;;
2021/03/04 15:52:06;;;;;;;;;;;;;;;;;;;;;
2021/03/04 15:54:58;;;;;;;;;;;6.30;99.90;;;;;;4729582;30;20040;-92
2021/03/04 16:09:55;;;;;;;6.65;3.53;;;6.20;99.90;;;;;;4998667;28;20996;-93
2021/03/04 16:17:11;;;;;;;9.57;4.50;;;6.10;99.90;;;;;;4840495;29;20036;-93
2021/03/04 16:20:27;;;;;;;;;;;;;;;;;;;;;
2021/03/04 16:27:41;;;;;;;7.63;4.25;;;6.00;99.90;;;;;;4783882;29;20098;-92
2021/03/04 16:30:59;;;;;;;7.63;3.33;;;6.10;99.90;;;;;;4762390;29;20045;-92
2021/03/04 16:38:12;;;;;;;8.30;3.80;;;6.00;99.90;;;;;;4752064;30;20036;-90
2021/03/04 16:40:51;;;;;;;;;;;;;;;;;;;;;
2021/03/04 16:43:33;;;;;;;;;;;;;;;;;;;;;
2021/03/04 16:50:06;;;;;;;16.05;3.92;;;6.00;99.90;;;;;;4902174;29;20127;-93
2021/03/04 16:52:44;;;;;;;12.02;3.90;;;5.90;99.90;;;;;;4887565;29;20492;-91
2021/03/04 16:55:35;;;;;;;9.48;3.30;;;5.90;99.90;;;;;;4902329;29;20040;-90
2021/03/04 16:58:23;;;;;;;13.93;3.58;;;5.90;99.90;;;;;;4893930;29;20045;-90
2021/03/04 17:01:10;;;;;;;11.88;2.92;;;5.90;99.90;;;;;;4877514;29;20043;-92
2021/03/04 17:05:00;;;;;;;7.93;2.22;;;5.90;99.90;;;;;;4930517;28;20077;-91
2021/03/04 17:07:14;;;;;;;;;;;;;;;;;;;;;
2021/03/04 17:10:43;;;;;;;;;;;;;;;;;;;;;
2021/03/04 17:13:41;;;;;;;12.90;3.35;;;5.90;99.90;;;;;;4983353;28;20500;-92
2021/03/04 17:17:13;;;;;;;;;;;;;;;;;;;;;
2021/03/04 17:23:15;;;;;;;;;;;;;;;;;;;;;
2021/03/04 17:25:56;;;;;;;6.72;1.77;;;5.80;99.90;;;;;;4973990;28;20049;-90
2021/03/04 17:28:46;;;;;;;8.23;1.85;;;5.80;99.90;;;;;;4989568;28;20379;-90
2021/03/04 17:31:32;;;;;;;6.95;2.47;;;5.70;99.90;;;;;;4978727;28;20039;-92
2021/03/04 17:34:12;;;;;;;;;;;;;;;;;;;;;
2021/03/04 17:36:49;;;;;;;11.20;2.55;;;5.70;99.90;;;;;;4982029;28;20025;-91
2021/03/04 17:39:22;;;;;;;14.70;2.90;;;5.70;99.90;;;;;;4964914;28;20066;-90
2021/03/04 17:42:38;;;;;;;;;;;;;;;;;;;;;
2021/03/04 17:45:14;;;;;;;10.93;2.83;;;5.60;99.90;;;;;;4982724;28;20043;-90
2021/03/04 17:47:50;;;;;;;10.38;2.10;;;5.60;99.90;;;;;;4978926;28;20514;-90
2021/03/04 17:51:03;;;;;;;13.75;2.40;;;5.50;99.90;;;;;;4969004;28;20026;-89
2021/03/04 17:53:55;;;;;;;10.13;2.13;;;5.60;99.90;;;;;;4969852;28;20026;-91
2021/03/04 17:56:35;;;;;;;10.48;2.38;;;5.60;99.90;;;;;;4981744;28;20037;-91
2021/03/04 17:59:31;;;;;;;11.07;2.50;;;5.50;99.90;;;;;;4968009;28;20041;-92
2021/03/04 18:02:35;;;;;;;10.90;2.28;;;5.50;99.90;;;;;;4947781;28;20539;-92
2021/03/04 18:05:22;;;;;;;8.75;2.05;;;5.50;99.90;;;;;;4974365;28;20105;-91
2021/03/04 18:07:57;;;;;;;11.35;2.65;;;5.50;99.90;;;;;;4958263;28;20066;-91
2021/03/04 18:10:29;;;;;;;15.80;2.75;;;5.60;99.90;;;;;;4956492;28;20050;-92
2021/03/04 18:13:36;;;;;;;12.23;2.38;;;5.50;99.90;;;;;;4962439;28;20106;-91
2021/03/04 18:16:06;;;;;;;12.70;2.40;;;5.50;99.90;;;;;;4983772;28;20100;-92
2021/03/04 18:19:03;;;;;;;10.45;2.03;;;5.50;99.90;;;;;;4986875;28;20041;-91
2021/03/04 18:22:08;;;;;;;;;;;;;;;;;;;;;
2021/03/04 18:25:04;;;;;;;10.73;2.53;;;5.40;99.90;;;;;;4999984;28;20072;-92
2021/03/04 18:27:48;;;;;;;13.45;3.88;;;5.40;99.90;;;;;;4983319;28;20035;-92
2021/03/04 18:30:46;;;;;;;9.93;2.25;;;5.30;99.90;;;;;;4993392;28;20053;-91
2021/03/04 18:33:32;;;;;;;11.52;2.25;;;5.30;99.90;;;;;;4978184;28;20030;-91
2021/03/04 18:36:18;;;;;;;9.65;1.65;;;5.30;99.90;;;;;;5002692;28;20048;-93
2021/03/04 18:38:56;;;;;;;8.18;1.77;;;5.30;99.90;;;;;;4985196;28;20189;-90
2021/03/04 18:44:39;;;;;;;16.48;2.95;;;5.20;99.90;;;;;;5006284;28;20040;-90
2021/03/04 18:48:09;;;;;;;8.27;1.95;;;5.20;99.90;;;;;;4980159;28;20041;-91
2021/03/04 18:51:11;;;;;;;13.02;2.10;;;5.20;99.90;;;;;;4990282;28;20037;-92
2021/03/04 18:54:40;;;;;;;;;;;;;;;;;;;;;
2021/03/04 18:57:22;;;;;;;12.73;3.03;;;5.20;99.90;;;;;;4958774;28;20386;-91
2021/03/04 18:59:56;;;;;;;12.32;2.83;;;5.20;99.90;;;;;;4996895;28;20718;-90
2021/03/04 19:02:37;;;;;;;9.00;2.20;;;5.10;99.90;;;;;;4974283;28;20034;-91
2021/03/04 19:05:15;;;;;;;8.15;2.40;;;5.10;99.90;;;;;;4964357;28;20043;-90
2021/03/04 19:29:11;;;;;;;7.97;2.30;;;5.00;99.90;;;;;;4857499;29;20105;-90